sensor_id;sensor_type;location;lat;lon;timestamp;P1;durP1;ratioP1;P2;durP2;ratioP2
41897;SDS011;27576;53.366;-1.498;2023-02-20T00:00:22;6.00;;;2.50;;
41897;SDS011;27576;53.366;-1.498;2023-02-20T00:02:52;2.30;;;1.77;;
41897;SDS011;27576;53.366;-1.498;2023-02-20T00:05:18;4.85;;;2.03;;
41897;SDS011;27576;53.366;-1.498;2023-02-20T00:07:44;3.95;;;2.53;;
41897;SDS011;27576;53.366;-1.498;2023-02-20T00:10:09;4.03;;;2.00;;
41897;SDS011;27576;53.366;-1.498;2023-02-20T00:12:36;2.83;;;2.15;;
41897;SDS011;27576;53.366;-1.498;2023-02-20T00:15:02;2.75;;;2.28;;
41897;SDS011;27576;53.366;-1.498;2023-02-20T00:17:28;3.78;;;3.20;;
41897;SDS011;27576;53.366;-1.498;2023-02-20T00:19:53;2.65;;;2.40;;
41897;SDS011;27576;53.366;-1.498;2023-02-20T00:22:22;3.13;;;2.20;;
41897;SDS011;27576;53.366;-1.498;2023-02-20T00:24:48;2.80;;;1.90;;
41897;SDS011;27576;53.366;-1.498;2023-02-20T00:27:14;2.75;;;1.65;;
41897;SDS011;27576;53.366;-1.498;2023-02-20T00:29:40;2.63;;;1.70;;
41897;SDS011;27576;53.366;-1.498;2023-02-20T00:32:05;4.05;;;1.65;;
41897;SDS011;27576;53.366;-1.498;2023-02-20T00:34:30;1.98;;;1.52;;
41897;SDS011;27576;53.366;-1.498;2023-02-20T00:36:56;3.83;;;1.58;;
41897;SDS011;27576;53.366;-1.498;2023-02-20T00:39:22;1.40;;;1.30;;
41897;SDS011;27576;53.366;-1.498;2023-02-20T00:41:47;2.60;;;1.48;;
41897;SDS011;27576;53.366;-1.498;2023-02-20T00:44:13;2.78;;;1.50;;
41897;SDS011;27576;53.366;-1.498;2023-02-20T00:46:39;2.38;;;1.35;;
41897;SDS011;27576;53.366;-1.498;2023-02-20T00:49:04;2.05;;;1.63;;
41897;SDS011;27576;53.366;-1.498;2023-02-20T00:51:29;2.10;;;1.33;;
41897;SDS011;27576;53.366;-1.498;2023-02-20T00:53:56;1.55;;;1.45;;
41897;SDS011;27576;53.366;-1.498;2023-02-20T00:56:21;2.20;;;1.40;;
41897;SDS011;27576;53.366;-1.498;2023-02-20T00:58:47;1.42;;;1.00;;
41897;SDS011;27576;53.366;-1.498;2023-02-20T01:01:12;2.38;;;1.42;;
41897;SDS011;27576;53.366;-1.498;2023-02-20T01:03:39;1.88;;;1.40;;
41897;SDS011;27576;53.366;-1.498;2023-02-20T01:06:04;2.35;;;2.15;;
41897;SDS011;27576;53.366;-1.498;2023-02-20T01:08:30;1.65;;;1.52;;
41897;SDS011;27576;53.366;-1.498;2023-02-20T01:10:55;1.65;;;1.25;;
41897;SDS011;27576;53.366;-1.498;2023-02-20T01:13:21;1.40;;;1.30;;
41897;SDS011;27576;53.366;-1.498;2023-02-20T01:15:46;1.83;;;1.10;;
41897;SDS011;27576;53.366;-1.498;2023-02-20T01:18:12;3.00;;;1.50;;
41897;SDS011;27576;53.366;-1.498;2023-02-20T01:20:37;3.13;;;2.08;;
41897;SDS011;27576;53.366;-1.498;2023-02-20T01:23:02;2.08;;;1.77;;
41897;SDS011;27576;53.366;-1.498;2023-02-20T01:25:28;2.55;;;2.10;;
41897;SDS011;27576;53.366;-1.498;2023-02-20T01:27:54;2.47;;;2.08;;
41897;SDS011;27576;53.366;-1.498;2023-02-20T01:30:19;2.65;;;1.90;;
41897;SDS011;27576;53.366;-1.498;2023-02-20T01:32:45;2.25;;;1.73;;
41897;SDS011;27576;53.366;-1.498;2023-02-20T01:35:10;3.33;;;1.92;;
41897;SDS011;27576;53.366;-1.498;2023-02-20T01:37:35;3.05;;;1.83;;
41897;SDS011;27576;53.366;-1.498;2023-02-20T01:40:02;2.78;;;1.77;;
41897;SDS011;27576;53.366;-1.498;2023-02-20T01:42:29;3.45;;;2.75;;
41897;SDS011;27576;53.366;-1.498;2023-02-20T01:47:49;3.40;;;1.90;;
41897;SDS011;27576;53.366;-1.498;2023-02-20T01:50:16;2.78;;;2.00;;
41897;SDS011;27576;53.366;-1.498;2023-02-20T01:52:44;1.60;;;1.50;;
41897;SDS011;27576;53.366;-1.498;2023-02-20T01:57:47;4.20;;;2.17;;
41897;SDS011;27576;53.366;-1.498;2023-02-20T02:00:23;1.45;;;1.35;;
41897;SDS011;27576;53.366;-1.498;2023-02-20T02:03:04;1.67;;;1.15;;
41897;SDS011;27576;53.366;-1.498;2023-02-20T02:05:33;1.98;;;1.20;;
41897;SDS011;27576;53.366;-1.498;2023-02-20T02:08:02;1.77;;;1.00;;
41897;SDS011;27576;53.366;-1.498;2023-02-20T02:10:32;1.77;;;1.10;;
41897;SDS011;27576;53.366;-1.498;2023-02-20T02:13:18;3.05;;;1.20;;
41897;SDS011;27576;53.366;-1.498;2023-02-20T02:15:44;2.65;;;1.45;;
41897;SDS011;27576;53.366;-1.498;2023-02-20T02:27:08;2.88;;;2.40;;
41897;SDS011;27576;53.366;-1.498;2023-02-20T02:38:25;2.10;;;1.90;;
41897;SDS011;27576;53.366;-1.498;2023-02-20T02:43:44;1.63;;;1.10;;
41897;SDS011;27576;53.366;-1.498;2023-02-20T02:48:59;2.10;;;1.00;;
41897;SDS011;27576;53.366;-1.498;2023-02-20T02:51:31;4.15;;;1.33;;
41897;SDS011;27576;53.366;-1.498;2023-02-20T02:56:47;3.03;;;0.95;;
41897;SDS011;27576;53.366;-1.498;2023-02-20T02:59:23;1.00;;;0.73;;
41897;SDS011;27576;53.366;-1.498;2023-02-20T03:01:54;1.70;;;0.95;;
41897;SDS011;27576;53.366;-1.498;2023-02-20T03:04:23;1.98;;;1.00;;
41897;SDS011;27576;53.366;-1.498;2023-02-20T03:06:56;1.45;;;0.90;;
41897;SDS011;27576;53.366;-1.498;2023-02-20T03:09:28;4.38;;;1.08;;
41897;SDS011;27576;53.366;-1.498;2023-02-20T03:11:57;3.33;;;1.10;;
41897;SDS011;27576;53.366;-1.498;2023-02-20T03:14:27;1.77;;;0.80;;
41897;SDS011;27576;53.366;-1.498;2023-02-20T03:17:27;1.17;;;0.82;;
41897;SDS011;27576;53.366;-1.498;2023-02-20T03:19:59;2.30;;;0.90;;
41897;SDS011;27576;53.366;-1.498;2023-02-20T03:22:36;0.80;;;0.80;;
41897;SDS011;27576;53.366;-1.498;2023-02-20T03:25:40;1.70;;;0.80;;
41897;SDS011;27576;53.366;-1.498;2023-02-20T03:28:01;1.63;;;0.70;;
41897;SDS011;27576;53.366;-1.498;2023-02-20T03:30:35;0.88;;;0.70;;
41897;SDS011;27576;53.366;-1.498;2023-02-20T03:33:15;0.93;;;0.85;;
41897;SDS011;27576;53.366;-1.498;2023-02-20T03:36:05;1.48;;;0.70;;
41897;SDS011;27576;53.366;-1.498;2023-02-20T03:38:53;2.05;;;1.08;;
41897;SDS011;27576;53.366;-1.498;2023-02-20T03:41:44;0.80;;;0.80;;
41897;SDS011;27576;53.366;-1.498;2023-02-20T03:44:31;1.80;;;0.90;;
41897;SDS011;27576;53.366;-1.498;2023-02-20T03:46:58;0.68;;;0.68;;
41897;SDS011;27576;53.366;-1.498;2023-02-20T03:49:27;1.30;;;0.85;;
41897;SDS011;27576;53.366;-1.498;2023-02-20T03:51:59;1.65;;;0.85;;
41897;SDS011;27576;53.366;-1.498;2023-02-20T03:54:25;0.65;;;0.60;;
41897;SDS011;27576;53.366;-1.498;2023-02-20T03:56:53;2.47;;;0.88;;
41897;SDS011;27576;53.366;-1.498;2023-02-20T03:59:40;1.58;;;1.02;;
41897;SDS011;27576;53.366;-1.498;2023-02-20T04:02:13;1.80;;;0.98;;
41897;SDS011;27576;53.366;-1.498;2023-02-20T04:04:50;2.65;;;1.10;;
41897;SDS011;27576;53.366;-1.498;2023-02-20T04:07:22;0.60;;;0.60;;
41897;SDS011;27576;53.366;-1.498;2023-02-20T04:09:50;3.42;;;0.70;;
41897;SDS011;27576;53.366;-1.498;2023-02-20T04:12:23;0.95;;;0.80;;
41897;SDS011;27576;53.366;-1.498;2023-02-20T04:14:52;0.82;;;0.60;;
41897;SDS011;27576;53.366;-1.498;2023-02-20T04:17:29;1.30;;;0.63;;
41897;SDS011;27576;53.366;-1.498;2023-02-20T04:19:59;1.30;;;0.77;;
41897;SDS011;27576;53.366;-1.498;2023-02-20T04:22:25;1.08;;;0.60;;
41897;SDS011;27576;53.366;-1.498;2023-02-20T04:24:56;2.67;;;0.70;;
41897;SDS011;27576;53.366;-1.498;2023-02-20T04:27:24;2.05;;;0.65;;
41897;SDS011;27576;53.366;-1.498;2023-02-20T04:29:50;4.78;;;0.80;;
41897;SDS011;27576;53.366;-1.498;2023-02-20T04:32:15;0.93;;;0.70;;
41897;SDS011;27576;53.366;-1.498;2023-02-20T04:34:41;0.70;;;0.70;;
41897;SDS011;27576;53.366;-1.498;2023-02-20T04:37:07;4.00;;;0.80;;
41897;SDS011;27576;53.366;-1.498;2023-02-20T04:39:35;0.60;;;0.60;;
41897;SDS011;27576;53.366;-1.498;2023-02-20T04:42:00;0.70;;;0.65;;
41897;SDS011;27576;53.366;-1.498;2023-02-20T04:44:27;1.25;;;0.82;;
41897;SDS011;27576;53.366;-1.498;2023-02-20T04:46:55;0.98;;;0.98;;
41897;SDS011;27576;53.366;-1.498;2023-02-20T04:49:21;1.65;;;1.00;;
41897;SDS011;27576;53.366;-1.498;2023-02-20T04:51:46;1.50;;;1.10;;
41897;SDS011;27576;53.366;-1.498;2023-02-20T04:54:12;1.52;;;0.85;;
41897;SDS011;27576;53.366;-1.498;2023-02-20T04:56:37;0.80;;;0.80;;
41897;SDS011;27576;53.366;-1.498;2023-02-20T04:59:02;1.40;;;0.80;;
41897;SDS011;27576;53.366;-1.498;2023-02-20T05:01:28;1.25;;;1.00;;
41897;SDS011;27576;53.366;-1.498;2023-02-20T05:03:54;1.13;;;0.85;;
41897;SDS011;27576;53.366;-1.498;2023-02-20T05:06:19;1.05;;;0.80;;
41897;SDS011;27576;53.366;-1.498;2023-02-20T05:08:44;1.15;;;0.93;;
41897;SDS011;27576;53.366;-1.498;2023-02-20T05:11:10;1.90;;;1.20;;
41897;SDS011;27576;53.366;-1.498;2023-02-20T05:13:35;1.98;;;1.20;;
41897;SDS011;27576;53.366;-1.498;2023-02-20T05:16:00;2.03;;;1.02;;
41897;SDS011;27576;53.366;-1.498;2023-02-20T05:18:26;2.80;;;1.40;;
41897;SDS011;27576;53.366;-1.498;2023-02-20T05:20:53;2.10;;;1.60;;
41897;SDS011;27576;53.366;-1.498;2023-02-20T05:23:37;1.50;;;1.30;;
41897;SDS011;27576;53.366;-1.498;2023-02-20T05:26:02;2.72;;;1.20;;
41897;SDS011;27576;53.366;-1.498;2023-02-20T05:28:32;1.80;;;1.33;;
41897;SDS011;27576;53.366;-1.498;2023-02-20T05:30:57;1.85;;;1.27;;
41897;SDS011;27576;53.366;-1.498;2023-02-20T05:33:23;1.25;;;1.08;;
41897;SDS011;27576;53.366;-1.498;2023-02-20T05:35:48;3.25;;;1.15;;
41897;SDS011;27576;53.366;-1.498;2023-02-20T05:38:17;0.93;;;0.93;;
41897;SDS011;27576;53.366;-1.498;2023-02-20T05:40:42;1.05;;;0.80;;
41897;SDS011;27576;53.366;-1.498;2023-02-20T05:43:08;1.88;;;0.75;;
41897;SDS011;27576;53.366;-1.498;2023-02-20T05:45:33;3.95;;;0.90;;
41897;SDS011;27576;53.366;-1.498;2023-02-20T05:47:58;1.13;;;0.90;;
41897;SDS011;27576;53.366;-1.498;2023-02-20T05:50:24;2.90;;;1.17;;
41897;SDS011;27576;53.366;-1.498;2023-02-20T05:52:49;1.73;;;0.90;;
41897;SDS011;27576;53.366;-1.498;2023-02-20T05:55:14;2.30;;;1.10;;
41897;SDS011;27576;53.366;-1.498;2023-02-20T05:57:40;2.78;;;1.13;;
41897;SDS011;27576;53.366;-1.498;2023-02-20T06:00:05;2.75;;;0.98;;
41897;SDS011;27576;53.366;-1.498;2023-02-20T06:02:31;2.30;;;1.05;;
41897;SDS011;27576;53.366;-1.498;2023-02-20T06:04:59;1.48;;;0.80;;
41897;SDS011;27576;53.366;-1.498;2023-02-20T06:07:25;1.33;;;0.82;;
41897;SDS011;27576;53.366;-1.498;2023-02-20T06:09:50;2.53;;;0.77;;
41897;SDS011;27576;53.366;-1.498;2023-02-20T06:12:15;1.88;;;0.90;;
41897;SDS011;27576;53.366;-1.498;2023-02-20T06:14:41;1.13;;;0.70;;
41897;SDS011;27576;53.366;-1.498;2023-02-20T06:17:06;2.25;;;0.95;;
41897;SDS011;27576;53.366;-1.498;2023-02-20T06:19:31;2.33;;;1.00;;
41897;SDS011;27576;53.366;-1.498;2023-02-20T06:21:57;2.53;;;1.30;;
41897;SDS011;27576;53.366;-1.498;2023-02-20T06:24:26;1.35;;;1.08;;
41897;SDS011;27576;53.366;-1.498;2023-02-20T06:26:51;0.70;;;0.70;;
41897;SDS011;27576;53.366;-1.498;2023-02-20T06:29:17;1.55;;;1.08;;
41897;SDS011;27576;53.366;-1.498;2023-02-20T06:31:43;1.00;;;0.85;;
41897;SDS011;27576;53.366;-1.498;2023-02-20T06:34:09;1.17;;;1.05;;
41897;SDS011;27576;53.366;-1.498;2023-02-20T06:36:36;1.80;;;1.13;;
41897;SDS011;27576;53.366;-1.498;2023-02-20T06:39:04;2.35;;;1.50;;
41897;SDS011;27576;53.366;-1.498;2023-02-20T06:41:30;2.58;;;0.95;;
41897;SDS011;27576;53.366;-1.498;2023-02-20T06:43:56;2.33;;;1.33;;
41897;SDS011;27576;53.366;-1.498;2023-02-20T06:46:22;3.83;;;1.42;;
41897;SDS011;27576;53.366;-1.498;2023-02-20T06:48:49;1.40;;;1.30;;
41897;SDS011;27576;53.366;-1.498;2023-02-20T06:51:16;1.23;;;1.13;;
41897;SDS011;27576;53.366;-1.498;2023-02-20T06:53:43;1.73;;;1.25;;
41897;SDS011;27576;53.366;-1.498;2023-02-20T06:56:09;0.95;;;0.90;;
41897;SDS011;27576;53.366;-1.498;2023-02-20T06:58:39;1.55;;;0.73;;
41897;SDS011;27576;53.366;-1.498;2023-02-20T07:01:05;1.98;;;1.00;;
41897;SDS011;27576;53.366;-1.498;2023-02-20T07:03:30;3.72;;;1.55;;
41897;SDS011;27576;53.366;-1.498;2023-02-20T07:05:56;1.40;;;1.30;;
41897;SDS011;27576;53.366;-1.498;2023-02-20T07:08:21;2.38;;;1.00;;
41897;SDS011;27576;53.366;-1.498;2023-02-20T07:10:46;1.23;;;1.13;;
41897;SDS011;27576;53.366;-1.498;2023-02-20T07:13:12;1.33;;;1.23;;
41897;SDS011;27576;53.366;-1.498;2023-02-20T07:15:37;0.85;;;0.75;;
41897;SDS011;27576;53.366;-1.498;2023-02-20T07:18:02;2.22;;;1.98;;
41897;SDS011;27576;53.366;-1.498;2023-02-20T07:20:28;2.25;;;1.20;;
41897;SDS011;27576;53.366;-1.498;2023-02-20T07:22:53;2.30;;;1.50;;
41897;SDS011;27576;53.366;-1.498;2023-02-20T07:25:19;2.08;;;1.95;;
41897;SDS011;27576;53.366;-1.498;2023-02-20T07:27:44;1.30;;;1.20;;
41897;SDS011;27576;53.366;-1.498;2023-02-20T07:30:10;2.35;;;0.73;;
41897;SDS011;27576;53.366;-1.498;2023-02-20T07:32:36;1.42;;;1.00;;
41897;SDS011;27576;53.366;-1.498;2023-02-20T07:35:01;2.75;;;1.23;;
41897;SDS011;27576;53.366;-1.498;2023-02-20T07:37:26;1.17;;;1.08;;
41897;SDS011;27576;53.366;-1.498;2023-02-20T07:39:52;2.70;;;1.90;;
41897;SDS011;27576;53.366;-1.498;2023-02-20T07:42:17;3.90;;;2.10;;
41897;SDS011;27576;53.366;-1.498;2023-02-20T07:44:43;1.90;;;1.80;;
41897;SDS011;27576;53.366;-1.498;2023-02-20T07:47:11;3.60;;;1.80;;
41897;SDS011;27576;53.366;-1.498;2023-02-20T07:49:36;1.42;;;1.33;;
41897;SDS011;27576;53.366;-1.498;2023-02-20T07:52:02;1.20;;;1.20;;
41897;SDS011;27576;53.366;-1.498;2023-02-20T07:54:27;4.07;;;1.65;;
41897;SDS011;27576;53.366;-1.498;2023-02-20T07:56:53;2.97;;;1.50;;
41897;SDS011;27576;53.366;-1.498;2023-02-20T07:59:19;2.10;;;1.40;;
41897;SDS011;27576;53.366;-1.498;2023-02-20T08:01:45;2.45;;;1.38;;
41897;SDS011;27576;53.366;-1.498;2023-02-20T08:04:10;1.50;;;0.90;;
41897;SDS011;27576;53.366;-1.498;2023-02-20T08:06:35;1.10;;;1.00;;
41897;SDS011;27576;53.366;-1.498;2023-02-20T08:09:01;1.02;;;0.90;;
41897;SDS011;27576;53.366;-1.498;2023-02-20T08:11:27;1.67;;;1.35;;
41897;SDS011;27576;53.366;-1.498;2023-02-20T08:13:52;2.92;;;1.85;;
41897;SDS011;27576;53.366;-1.498;2023-02-20T08:16:19;2.22;;;2.05;;
41897;SDS011;27576;53.366;-1.498;2023-02-20T08:18:46;3.10;;;2.05;;
41897;SDS011;27576;53.366;-1.498;2023-02-20T08:21:12;3.80;;;2.63;;
41897;SDS011;27576;53.366;-1.498;2023-02-20T08:23:37;3.78;;;3.15;;
41897;SDS011;27576;53.366;-1.498;2023-02-20T08:26:03;3.47;;;3.17;;
41897;SDS011;27576;53.366;-1.498;2023-02-20T08:28:29;3.80;;;3.47;;
41897;SDS011;27576;53.366;-1.498;2023-02-20T08:30:55;6.10;;;3.22;;
41897;SDS011;27576;53.366;-1.498;2023-02-20T08:33:20;4.32;;;3.13;;
41897;SDS011;27576;53.366;-1.498;2023-02-20T08:35:46;3.63;;;3.33;;
41897;SDS011;27576;53.366;-1.498;2023-02-20T08:38:22;4.15;;;3.85;;
41897;SDS011;27576;53.366;-1.498;2023-02-20T08:40:47;3.60;;;3.35;;
41897;SDS011;27576;53.366;-1.498;2023-02-20T08:43:13;3.90;;;3.60;;
41897;SDS011;27576;53.366;-1.498;2023-02-20T08:45:38;3.65;;;3.03;;
41897;SDS011;27576;53.366;-1.498;2023-02-20T08:48:03;3.47;;;2.33;;
41897;SDS011;27576;53.366;-1.498;2023-02-20T08:50:29;2.55;;;2.10;;
41897;SDS011;27576;53.366;-1.498;2023-02-20T08:52:54;1.88;;;1.70;;
41897;SDS011;27576;53.366;-1.498;2023-02-20T08:55:19;1.48;;;1.38;;
41897;SDS011;27576;53.366;-1.498;2023-02-20T08:57:45;1.73;;;1.45;;
41897;SDS011;27576;53.366;-1.498;2023-02-20T09:00:10;2.60;;;1.80;;
41897;SDS011;27576;53.366;-1.498;2023-02-20T09:02:38;4.72;;;2.00;;
41897;SDS011;27576;53.366;-1.498;2023-02-20T09:05:07;2.90;;;2.70;;
41897;SDS011;27576;53.366;-1.498;2023-02-20T09:07:33;4.90;;;4.07;;
41897;SDS011;27576;53.366;-1.498;2023-02-20T09:09:58;3.67;;;3.17;;
41897;SDS011;27576;53.366;-1.498;2023-02-20T09:12:23;2.75;;;2.55;;
41897;SDS011;27576;53.366;-1.498;2023-02-20T09:14:49;1.60;;;1.50;;
41897;SDS011;27576;53.366;-1.498;2023-02-20T09:17:14;3.00;;;2.80;;
41897;SDS011;27576;53.366;-1.498;2023-02-20T09:19:40;2.50;;;2.30;;
41897;SDS011;27576;53.366;-1.498;2023-02-20T09:22:05;3.75;;;2.30;;
41897;SDS011;27576;53.366;-1.498;2023-02-20T09:24:31;5.95;;;2.80;;
41897;SDS011;27576;53.366;-1.498;2023-02-20T09:26:59;6.43;;;4.03;;
41897;SDS011;27576;53.366;-1.498;2023-02-20T09:29:25;7.32;;;5.70;;
41897;SDS011;27576;53.366;-1.498;2023-02-20T09:31:51;6.20;;;5.60;;
41897;SDS011;27576;53.366;-1.498;2023-02-20T09:34:17;7.30;;;5.30;;
41897;SDS011;27576;53.366;-1.498;2023-02-20T09:36:43;4.38;;;3.97;;
41897;SDS011;27576;53.366;-1.498;2023-02-20T09:39:08;3.97;;;3.67;;
41897;SDS011;27576;53.366;-1.498;2023-02-20T09:46:43;5.75;;;5.03;;
41897;SDS011;27576;53.366;-1.498;2023-02-20T09:49:13;4.93;;;4.53;;
41897;SDS011;27576;53.366;-1.498;2023-02-20T09:51:43;6.90;;;5.40;;
41897;SDS011;27576;53.366;-1.498;2023-02-20T09:54:15;5.43;;;4.88;;
41897;SDS011;27576;53.366;-1.498;2023-02-20T09:56:49;5.35;;;4.80;;
41897;SDS011;27576;53.366;-1.498;2023-02-20T09:59:18;4.05;;;3.65;;
41897;SDS011;27576;53.366;-1.498;2023-02-20T10:01:52;4.68;;;4.03;;
41897;SDS011;27576;53.366;-1.498;2023-02-20T10:04:23;5.28;;;4.85;;
41897;SDS011;27576;53.366;-1.498;2023-02-20T10:06:55;6.30;;;5.70;;
41897;SDS011;27576;53.366;-1.498;2023-02-20T10:09:26;5.63;;;5.13;;
41897;SDS011;27576;53.366;-1.498;2023-02-20T10:11:57;9.63;;;8.18;;
41897;SDS011;27576;53.366;-1.498;2023-02-20T10:17:08;6.57;;;5.90;;
41897;SDS011;27576;53.366;-1.498;2023-02-20T10:19:59;5.93;;;5.32;;
41897;SDS011;27576;53.366;-1.498;2023-02-20T10:25:19;4.63;;;4.22;;
41897;SDS011;27576;53.366;-1.498;2023-02-20T10:30:24;4.05;;;3.67;;
41897;SDS011;27576;53.366;-1.498;2023-02-20T10:33:09;4.25;;;3.60;;
41897;SDS011;27576;53.366;-1.498;2023-02-20T10:35:49;5.13;;;3.67;;
41897;SDS011;27576;53.366;-1.498;2023-02-20T10:38:17;7.28;;;3.08;;
41897;SDS011;27576;53.366;-1.498;2023-02-20T10:40:50;3.25;;;2.95;;
41897;SDS011;27576;53.366;-1.498;2023-02-20T10:43:50;3.97;;;2.72;;
41897;SDS011;27576;53.366;-1.498;2023-02-20T10:49:00;5.13;;;3.70;;
41897;SDS011;27576;53.366;-1.498;2023-02-20T10:51:32;5.43;;;3.42;;
41897;SDS011;27576;53.366;-1.498;2023-02-20T10:54:19;3.00;;;2.70;;
41897;SDS011;27576;53.366;-1.498;2023-02-20T10:56:59;3.85;;;3.15;;
41897;SDS011;27576;53.366;-1.498;2023-02-20T11:02:24;5.03;;;3.63;;
41897;SDS011;27576;53.366;-1.498;2023-02-20T11:04:56;3.35;;;3.05;;
41897;SDS011;27576;53.366;-1.498;2023-02-20T11:07:26;3.15;;;2.90;;
41897;SDS011;27576;53.366;-1.498;2023-02-20T11:09:52;5.00;;;3.10;;
41897;SDS011;27576;53.366;-1.498;2023-02-20T11:12:20;3.63;;;2.80;;
41897;SDS011;27576;53.366;-1.498;2023-02-20T11:15:10;6.25;;;3.50;;
41897;SDS011;27576;53.366;-1.498;2023-02-20T11:17:39;4.97;;;4.05;;
41897;SDS011;27576;53.366;-1.498;2023-02-20T11:20:05;4.75;;;4.25;;
41897;SDS011;27576;53.366;-1.498;2023-02-20T11:22:50;7.10;;;4.35;;
41897;SDS011;27576;53.366;-1.498;2023-02-20T11:25:20;4.32;;;3.58;;
41897;SDS011;27576;53.366;-1.498;2023-02-20T11:28:16;5.88;;;2.70;;
41897;SDS011;27576;53.366;-1.498;2023-02-20T11:30:58;3.13;;;2.75;;
41897;SDS011;27576;53.366;-1.498;2023-02-20T11:33:29;6.32;;;3.13;;
41897;SDS011;27576;53.366;-1.498;2023-02-20T11:39:24;5.00;;;4.50;;
41897;SDS011;27576;53.366;-1.498;2023-02-20T11:44:43;3.92;;;3.47;;
41897;SDS011;27576;53.366;-1.498;2023-02-20T11:47:21;3.63;;;3.33;;
41897;SDS011;27576;53.366;-1.498;2023-02-20T11:50:07;5.90;;;2.30;;
41897;SDS011;27576;53.366;-1.498;2023-02-20T11:52:34;2.10;;;1.88;;
41897;SDS011;27576;53.366;-1.498;2023-02-20T11:55:19;2.75;;;1.70;;
41897;SDS011;27576;53.366;-1.498;2023-02-20T11:57:47;5.22;;;1.88;;
41897;SDS011;27576;53.366;-1.498;2023-02-20T12:00:20;3.22;;;1.95;;
41897;SDS011;27576;53.366;-1.498;2023-02-20T12:05:50;3.45;;;2.45;;
41897;SDS011;27576;53.366;-1.498;2023-02-20T12:11:11;4.10;;;1.85;;
41897;SDS011;27576;53.366;-1.498;2023-02-20T12:13:40;4.90;;;1.80;;
41897;SDS011;27576;53.366;-1.498;2023-02-20T12:27:58;3.03;;;2.10;;
41897;SDS011;27576;53.366;-1.498;2023-02-20T12:30:27;2.10;;;1.90;;
41897;SDS011;27576;53.366;-1.498;2023-02-20T12:32:54;3.38;;;3.03;;
41897;SDS011;27576;53.366;-1.498;2023-02-20T12:35:34;3.55;;;2.50;;
41897;SDS011;27576;53.366;-1.498;2023-02-20T12:40:43;2.22;;;1.95;;
41897;SDS011;27576;53.366;-1.498;2023-02-20T12:46:08;2.60;;;2.40;;
41897;SDS011;27576;53.366;-1.498;2023-02-20T12:54:31;3.28;;;1.80;;
41897;SDS011;27576;53.366;-1.498;2023-02-20T12:57:12;4.47;;;1.80;;
41897;SDS011;27576;53.366;-1.498;2023-02-20T12:59:55;3.65;;;1.55;;
41897;SDS011;27576;53.366;-1.498;2023-02-20T13:02:35;4.68;;;1.50;;
41897;SDS011;27576;53.366;-1.498;2023-02-20T13:05:04;3.90;;;1.42;;
41897;SDS011;27576;53.366;-1.498;2023-02-20T13:07:34;1.98;;;1.48;;
41897;SDS011;27576;53.366;-1.498;2023-02-20T13:12:36;2.25;;;1.52;;
41897;SDS011;27576;53.366;-1.498;2023-02-20T13:15:06;1.48;;;1.20;;
41897;SDS011;27576;53.366;-1.498;2023-02-20T13:17:48;3.10;;;1.42;;
41897;SDS011;27576;53.366;-1.498;2023-02-20T13:20:19;2.17;;;1.42;;
41897;SDS011;27576;53.366;-1.498;2023-02-20T13:22:58;3.35;;;1.35;;
41897;SDS011;27576;53.366;-1.498;2023-02-20T13:28:12;1.25;;;1.15;;
41897;SDS011;27576;53.366;-1.498;2023-02-20T13:33:39;2.20;;;1.50;;
41897;SDS011;27576;53.366;-1.498;2023-02-20T13:36:14;3.03;;;1.50;;
41897;SDS011;27576;53.366;-1.498;2023-02-20T13:39:24;2.67;;;1.55;;
41897;SDS011;27576;53.366;-1.498;2023-02-20T13:44:56;2.42;;;1.40;;
41897;SDS011;27576;53.366;-1.498;2023-02-20T13:57:45;5.00;;;2.58;;
41897;SDS011;27576;53.366;-1.498;2023-02-20T14:00:23;6.38;;;3.72;;
41897;SDS011;27576;53.366;-1.498;2023-02-20T14:02:53;6.80;;;2.95;;
41897;SDS011;27576;53.366;-1.498;2023-02-20T14:05:29;5.88;;;4.20;;
41897;SDS011;27576;53.366;-1.498;2023-02-20T14:07:56;17.48;;;8.45;;
41897;SDS011;27576;53.366;-1.498;2023-02-20T14:10:27;12.40;;;5.13;;
41897;SDS011;27576;53.366;-1.498;2023-02-20T14:12:59;16.92;;;9.13;;
41897;SDS011;27576;53.366;-1.498;2023-02-20T14:15:54;15.20;;;8.00;;
41897;SDS011;27576;53.366;-1.498;2023-02-20T14:23:47;11.07;;;6.57;;
41897;SDS011;27576;53.366;-1.498;2023-02-20T14:26:21;6.68;;;6.00;;
41897;SDS011;27576;53.366;-1.498;2023-02-20T14:28:57;10.50;;;7.63;;
41897;SDS011;27576;53.366;-1.498;2023-02-20T14:31:29;6.03;;;5.43;;
41897;SDS011;27576;53.366;-1.498;2023-02-20T14:34:08;8.95;;;6.85;;
41897;SDS011;27576;53.366;-1.498;2023-02-20T14:39:47;26.45;;;12.85;;
41897;SDS011;27576;53.366;-1.498;2023-02-20T14:42:18;10.65;;;6.90;;
41897;SDS011;27576;53.366;-1.498;2023-02-20T14:44:49;9.40;;;6.10;;
41897;SDS011;27576;53.366;-1.498;2023-02-20T14:47:17;4.93;;;4.20;;
41897;SDS011;27576;53.366;-1.498;2023-02-20T14:49:43;4.25;;;3.85;;
41897;SDS011;27576;53.366;-1.498;2023-02-20T14:54:34;6.10;;;3.78;;
41897;SDS011;27576;53.366;-1.498;2023-02-20T14:57:01;5.18;;;3.63;;
41897;SDS011;27576;53.366;-1.498;2023-02-20T15:01:58;5.93;;;4.53;;
41897;SDS011;27576;53.366;-1.498;2023-02-20T15:04:26;5.72;;;3.90;;
41897;SDS011;27576;53.366;-1.498;2023-02-20T15:06:52;6.05;;;3.28;;
41897;SDS011;27576;53.366;-1.498;2023-02-20T15:09:34;5.18;;;3.60;;
41897;SDS011;27576;53.366;-1.498;2023-02-20T15:12:05;7.45;;;5.35;;
41897;SDS011;27576;53.366;-1.498;2023-02-20T15:14:33;7.07;;;5.82;;
41897;SDS011;27576;53.366;-1.498;2023-02-20T15:17:06;6.68;;;5.97;;
41897;SDS011;27576;53.366;-1.498;2023-02-20T15:19:46;17.90;;;9.52;;
41897;SDS011;27576;53.366;-1.498;2023-02-20T15:22:25;13.32;;;8.55;;
41897;SDS011;27576;53.366;-1.498;2023-02-20T15:25:10;7.72;;;6.80;;
41897;SDS011;27576;53.366;-1.498;2023-02-20T15:27:37;9.30;;;7.25;;
41897;SDS011;27576;53.366;-1.498;2023-02-20T15:30:15;10.10;;;7.57;;
41897;SDS011;27576;53.366;-1.498;2023-02-20T15:32:42;7.50;;;6.55;;
41897;SDS011;27576;53.366;-1.498;2023-02-20T15:35:15;6.70;;;6.10;;
41897;SDS011;27576;53.366;-1.498;2023-02-20T15:37:42;6.53;;;5.93;;
41897;SDS011;27576;53.366;-1.498;2023-02-20T15:40:19;6.20;;;4.95;;
41897;SDS011;27576;53.366;-1.498;2023-02-20T15:42:47;5.07;;;4.57;;
41897;SDS011;27576;53.366;-1.498;2023-02-20T15:45:14;5.43;;;4.93;;
41897;SDS011;27576;53.366;-1.498;2023-02-20T15:47:39;5.25;;;4.63;;
41897;SDS011;27576;53.366;-1.498;2023-02-20T15:50:05;4.22;;;3.83;;
41897;SDS011;27576;53.366;-1.498;2023-02-20T15:52:30;5.30;;;3.33;;
41897;SDS011;27576;53.366;-1.498;2023-02-20T15:54:56;3.80;;;3.50;;
41897;SDS011;27576;53.366;-1.498;2023-02-20T15:57:25;3.28;;;2.97;;
41897;SDS011;27576;53.366;-1.498;2023-02-20T15:59:50;3.78;;;2.75;;
41897;SDS011;27576;53.366;-1.498;2023-02-20T16:02:16;2.80;;;2.60;;
41897;SDS011;27576;53.366;-1.498;2023-02-20T16:04:45;4.38;;;3.30;;
41897;SDS011;27576;53.366;-1.498;2023-02-20T16:07:15;6.57;;;4.35;;
41897;SDS011;27576;53.366;-1.498;2023-02-20T16:09:42;4.43;;;4.03;;
41897;SDS011;27576;53.366;-1.498;2023-02-20T16:12:18;4.57;;;4.13;;
41897;SDS011;27576;53.366;-1.498;2023-02-20T16:14:49;5.05;;;4.65;;
41897;SDS011;27576;53.366;-1.498;2023-02-20T16:17:20;5.82;;;5.32;;
41897;SDS011;27576;53.366;-1.498;2023-02-20T16:19:48;6.60;;;6.03;;
41897;SDS011;27576;53.366;-1.498;2023-02-20T16:22:13;6.63;;;5.80;;
41897;SDS011;27576;53.366;-1.498;2023-02-20T16:24:39;6.63;;;6.03;;
41897;SDS011;27576;53.366;-1.498;2023-02-20T16:27:07;7.22;;;6.53;;
41897;SDS011;27576;53.366;-1.498;2023-02-20T16:29:54;6.38;;;5.88;;
41897;SDS011;27576;53.366;-1.498;2023-02-20T16:32:28;6.47;;;5.78;;
41897;SDS011;27576;53.366;-1.498;2023-02-20T16:34:55;6.15;;;5.47;;
41897;SDS011;27576;53.366;-1.498;2023-02-20T16:37:22;6.70;;;5.90;;
41897;SDS011;27576;53.366;-1.498;2023-02-20T16:39:48;6.30;;;5.63;;
41897;SDS011;27576;53.366;-1.498;2023-02-20T16:44:48;6.80;;;5.22;;
41897;SDS011;27576;53.366;-1.498;2023-02-20T16:47:16;6.60;;;4.88;;
41897;SDS011;27576;53.366;-1.498;2023-02-20T16:49:43;6.07;;;5.03;;